createdAt,value
2023-01-08T00:00:07.270Z,76.4
2023-01-08T00:05:08.718Z,59.6
2023-01-08T00:10:07.186Z,64.6
2023-01-08T00:15:06.752Z,62.5
2023-01-08T00:20:06.926Z,65.3
2023-01-08T00:25:06.892Z,62.5
2023-01-08T00:30:07.219Z,60.4
2023-01-08T00:35:07.196Z,61.2
2023-01-08T00:40:07.241Z,64.1
2023-01-08T00:45:06.307Z,58.8
2023-01-08T00:50:06.328Z,53
2023-01-08T00:55:06.292Z,52.9
2023-01-08T01:00:06.527Z,51.5
2023-01-08T01:05:06.397Z,52.5
2023-01-08T01:10:06.382Z,58.9
2023-01-08T01:15:06.509Z,52.4
2023-01-08T01:20:06.566Z,61.7
2023-01-08T01:25:06.486Z,78.7
2023-01-08T01:30:07.214Z,77.9
2023-01-08T01:35:07.207Z,79.8
2023-01-08T01:40:06.386Z,77.5
2023-01-08T01:45:06.447Z,67.9
2023-01-08T01:50:06.627Z,70.7
2023-01-08T01:55:06.597Z,54.1
2023-01-08T02:00:06.854Z,59
2023-01-08T02:05:06.640Z,54.8
2023-01-08T02:10:06.944Z,64.4
2023-01-08T02:15:06.520Z,71.3
2023-01-08T02:20:06.918Z,60.9
2023-01-08T02:25:07.001Z,74
2023-01-08T02:30:06.979Z,63.9
2023-01-08T02:35:06.991Z,67.2
2023-01-08T02:40:06.611Z,71.2
2023-01-08T02:45:06.426Z,69.5
2023-01-08T02:50:06.303Z,57.1
2023-01-08T02:55:06.687Z,57.9
2023-01-08T03:00:07.021Z,56.7
2023-01-08T03:05:06.645Z,58.2
2023-01-08T03:10:06.911Z,51.6
2023-01-08T03:15:06.345Z,55.6
2023-01-08T03:20:06.623Z,44.3
2023-01-08T03:25:07.015Z,49.2
2023-01-08T03:30:06.413Z,40
2023-01-08T03:35:06.489Z,50.1
2023-01-08T03:40:06.465Z,54.7
2023-01-08T03:45:06.932Z,41.9
2023-01-08T03:50:06.750Z,45
2023-01-08T03:55:06.973Z,52
2023-01-08T04:00:07.248Z,52.3
2023-01-08T04:05:06.753Z,46.9
2023-01-08T04:10:06.874Z,48.7
2023-01-08T04:15:06.951Z,43.1
2023-01-08T04:20:07.023Z,40
2023-01-08T04:25:07.074Z,39.2
2023-01-08T04:30:07.034Z,34
2023-01-08T04:35:07.083Z,29.6
2023-01-08T04:40:07.016Z,34.1
2023-01-08T04:45:07.145Z,32.8
2023-01-08T04:50:07.229Z,32.1
2023-01-08T04:55:07.248Z,37.6
2023-01-08T05:00:07.232Z,38.2
2023-01-08T05:05:06.937Z,30.8
2023-01-08T05:10:07.045Z,33.2
2023-01-08T05:15:07.168Z,26.5
2023-01-08T05:20:07.162Z,28.9
2023-01-08T05:25:07.530Z,32.3
2023-01-08T05:30:06.373Z,36.6
2023-01-08T05:35:06.409Z,34.7
2023-01-08T05:40:06.593Z,37
2023-01-08T05:45:06.652Z,36.3
2023-01-08T05:50:06.640Z,35.9
2023-01-08T05:55:06.678Z,37.7
2023-01-08T06:00:06.661Z,36.7
2023-01-08T06:05:06.645Z,41.7
2023-01-08T06:10:06.882Z,38.5
2023-01-08T06:15:06.946Z,53
2023-01-08T06:20:07.072Z,49.3
2023-01-08T06:25:07.291Z,56
2023-01-08T06:30:06.293Z,53.4
2023-01-08T06:35:06.428Z,44.7
2023-01-08T06:40:06.508Z,51.6
2023-01-08T06:45:06.477Z,49
2023-01-08T06:50:06.514Z,42.1
2023-01-08T06:55:06.579Z,38.6
2023-01-08T07:00:06.854Z,37.9
2023-01-08T07:05:06.688Z,39.9
2023-01-08T07:10:06.819Z,43.2
2023-01-08T07:15:06.916Z,45
2023-01-08T07:20:07.042Z,52.6
2023-01-08T07:25:07.136Z,50.4
2023-01-08T07:30:06.307Z,44.6
2023-01-08T07:35:06.483Z,60.1
2023-01-08T07:40:06.716Z,60.5
2023-01-08T07:45:06.791Z,62.3
2023-01-08T07:50:06.956Z,53.7
2023-01-08T07:55:06.835Z,43.2
2023-01-08T08:00:06.856Z,46.1
2023-01-08T08:05:06.597Z,53.4
2023-01-08T08:10:06.897Z,52.9
2023-01-08T08:15:07.074Z,56.8
2023-01-08T08:20:07.111Z,57.9
2023-01-08T08:25:06.288Z,48.9
2023-01-08T08:30:06.504Z,53.1
2023-01-08T08:35:06.576Z,45.7
2023-01-08T08:40:06.670Z,39.7
2023-01-08T08:45:06.724Z,38.4
2023-01-08T08:50:06.784Z,40.4
2023-01-08T08:55:06.865Z,38.1
2023-01-08T09:00:06.963Z,40.9
2023-01-08T09:05:06.866Z,34.4
2023-01-08T09:10:07.060Z,43.8
2023-01-08T09:15:06.948Z,34.2
2023-01-08T09:20:07.120Z,33
2023-01-08T09:25:07.042Z,40.6
2023-01-08T09:30:07.134Z,44.3
2023-01-08T09:35:07.157Z,40.1
2023-01-08T09:40:06.481Z,36.2
2023-01-08T09:45:06.439Z,48
2023-01-08T09:50:07.130Z,23.8
2023-01-08T09:55:07.064Z,9.5
2023-01-08T10:00:07.274Z,9.3
2023-01-08T10:05:06.971Z,8
2023-01-08T10:10:07.071Z,19.4
2023-01-08T10:15:07.013Z,46.7
2023-01-08T10:20:06.984Z,47.9
2023-01-08T10:25:07.133Z,45
2023-01-08T10:30:06.321Z,37.6
2023-01-08T10:35:06.999Z,39.1
2023-01-08T10:40:07.163Z,37.9
2023-01-08T10:45:07.073Z,40.3
2023-01-08T10:50:06.329Z,30.8
2023-01-08T10:55:07.187Z,29.4
2023-01-08T11:00:06.433Z,29.2
2023-01-08T11:05:06.398Z,30.5
2023-01-08T11:10:06.644Z,30.4
2023-01-08T11:15:06.468Z,32.1
2023-01-08T11:20:06.481Z,31.3
2023-01-08T11:25:06.462Z,28
2023-01-08T11:30:06.605Z,28.1
2023-01-08T11:35:06.479Z,28.1
2023-01-08T11:40:06.730Z,28
2023-01-08T11:45:07.262Z,27.8
2023-01-08T11:50:07.012Z,27.5
2023-01-08T11:55:06.961Z,28
2023-01-08T12:00:06.820Z,28.6
2023-01-08T12:05:06.265Z,27.1
2023-01-08T12:10:06.281Z,27
2023-01-08T12:15:06.933Z,25.3
2023-01-08T12:20:07.119Z,23.1
2023-01-08T12:25:07.170Z,23.8
2023-01-08T12:30:06.388Z,25.7
2023-01-08T12:35:06.262Z,25.9
2023-01-08T12:40:06.492Z,28.4
2023-01-08T12:45:07.061Z,21.8
2023-01-08T12:50:06.653Z,27.9
2023-01-08T12:55:06.678Z,24.7
2023-01-08T13:00:06.509Z,26.9
2023-01-08T13:05:06.932Z,24.8
2023-01-08T13:10:06.522Z,20.1
2023-01-08T13:15:06.466Z,20
2023-01-08T13:20:06.650Z,30.7
2023-01-08T13:25:06.708Z,15.4
2023-01-08T13:30:06.805Z,12.5
2023-01-08T13:35:07.077Z,6.8
2023-01-08T13:40:07.052Z,6.4
2023-01-08T13:45:07.096Z,8.2
2023-01-08T13:50:07.121Z,6.8
2023-01-08T13:55:06.848Z,12.4
2023-01-08T14:00:06.614Z,7.6
2023-01-08T14:05:06.642Z,4.9
2023-01-08T14:10:06.639Z,6.6
2023-01-08T14:15:06.721Z,7.1
2023-01-08T14:20:06.770Z,6
2023-01-08T14:25:06.996Z,9.2
2023-01-08T14:30:07.076Z,5.9
2023-01-08T14:35:07.123Z,7.9
2023-01-08T14:40:07.235Z,7.9
2023-01-08T14:45:07.083Z,5.6
2023-01-08T14:50:07.160Z,8.7
2023-01-08T14:55:07.098Z,25.6
2023-01-08T15:00:07.345Z,34.7
2023-01-08T15:05:06.658Z,33.8
2023-01-08T15:10:06.759Z,23.8
2023-01-08T15:15:06.369Z,30.3
2023-01-08T15:20:06.839Z,43.9
2023-01-08T15:25:07.050Z,74.6
2023-01-08T15:30:07.114Z,73.9
2023-01-08T15:35:07.015Z,129.4
2023-01-08T15:40:07.176Z,126.9
2023-01-08T15:45:07.108Z,118.7
2023-01-08T15:50:06.321Z,113.2
2023-01-08T15:55:06.313Z,113.1
2023-01-08T16:00:06.551Z,121
2023-01-08T16:05:06.266Z,54.2
2023-01-08T16:10:06.335Z,62.4
2023-01-08T16:15:06.580Z,73.3
2023-01-08T16:20:06.830Z,89
2023-01-08T16:25:07.048Z,83.5
2023-01-08T16:30:07.071Z,80.4
2023-01-08T16:35:06.280Z,91.9
2023-01-08T16:40:06.468Z,91.3
2023-01-08T16:45:06.609Z,95.9
2023-01-08T16:50:06.650Z,110.1
2023-01-08T16:55:06.703Z,114.7
2023-01-08T17:00:07.234Z,102.2
2023-01-08T17:05:07.038Z,87.9
2023-01-08T17:10:06.543Z,73.3
2023-01-08T17:15:06.764Z,87
2023-01-08T17:20:06.335Z,126.5
2023-01-08T17:25:06.410Z,127.1
2023-01-08T17:30:06.560Z,146.2
2023-01-08T17:35:06.849Z,122.2
2023-01-08T17:40:06.913Z,109.5
2023-01-08T17:45:07.023Z,100.2
2023-01-08T17:50:06.613Z,114
2023-01-08T17:55:06.788Z,132.9
2023-01-08T18:00:07.114Z,132.6
2023-01-08T18:05:06.396Z,103
2023-01-08T18:10:06.397Z,107.4
2023-01-08T18:15:06.485Z,68.7
2023-01-08T18:20:06.559Z,46
2023-01-08T18:25:06.791Z,63
2023-01-08T18:30:06.835Z,46.6
2023-01-08T18:35:07.124Z,37.6
2023-01-08T18:40:07.134Z,62.5
2023-01-08T18:45:07.079Z,64.6
2023-01-08T18:50:06.356Z,50.9
2023-01-08T18:55:06.391Z,53.9
2023-01-08T19:00:06.633Z,54.7
2023-01-08T19:05:06.516Z,82.5
2023-01-08T19:10:06.577Z,63.8
2023-01-08T19:15:06.696Z,62.9
2023-01-08T19:20:06.723Z,57.2
2023-01-08T19:25:06.707Z,50.7
2023-01-08T19:30:06.744Z,42.3
2023-01-08T19:35:06.934Z,48.8
2023-01-08T19:40:06.948Z,31.9
2023-01-08T19:45:07.124Z,37.8
2023-01-08T19:50:06.278Z,33.8
2023-01-08T19:55:07.219Z,29
2023-01-08T20:00:07.318Z,40.9
2023-01-08T20:05:07.037Z,28
2023-01-08T20:10:07.148Z,43
2023-01-08T20:15:06.239Z,41.3
2023-01-08T20:20:06.378Z,45
2023-01-08T20:25:06.366Z,45.2
2023-01-08T20:30:06.544Z,44
2023-01-08T20:35:06.811Z,43.2
2023-01-08T20:40:06.563Z,43.8
2023-01-08T20:45:06.506Z,46.4
2023-01-08T20:50:06.537Z,46.9
2023-01-08T20:55:06.471Z,50.6
2023-01-08T21:00:07.292Z,46.9
2023-01-08T21:05:07.080Z,47.9
2023-01-08T21:10:06.982Z,42.2
2023-01-08T21:15:07.089Z,42.1
2023-01-08T21:20:07.146Z,42.4
2023-01-08T21:25:06.831Z,43.5
2023-01-08T21:30:07.073Z,45
2023-01-08T21:35:06.343Z,50.8
2023-01-08T21:40:06.462Z,46.9
2023-01-08T21:45:06.784Z,51.7
2023-01-08T21:50:06.495Z,57.4
2023-01-08T21:55:06.514Z,65
2023-01-08T22:00:06.817Z,54.1
2023-01-08T22:05:06.237Z,67.4
2023-01-08T22:10:06.507Z,91.1
2023-01-08T22:15:06.973Z,104.9
2023-01-08T22:20:06.357Z,126.1
2023-01-08T22:25:06.692Z,120.7
2023-01-08T22:30:06.695Z,98.4
2023-01-08T22:35:06.221Z,79.8
2023-01-08T22:40:07.180Z,76.8
2023-01-08T22:45:06.693Z,79
2023-01-08T22:50:06.689Z,93.5
2023-01-08T22:55:06.168Z,86.2
2023-01-08T23:00:07.016Z,76.8
2023-01-08T23:05:06.804Z,76.8
2023-01-08T23:10:06.408Z,84.1
2023-01-08T23:15:06.924Z,85.4
2023-01-08T23:20:06.279Z,83.1
2023-01-08T23:25:06.584Z,72
2023-01-08T23:30:07.041Z,75.8
2023-01-08T23:35:06.346Z,70.4
2023-01-08T23:40:06.783Z,72.7
2023-01-08T23:45:07.088Z,80.7
2023-01-08T23:50:06.347Z,72.3
2023-01-08T23:55:06.606Z,67.5
